Terminal Aerodrome Forecast
Issued by NWS

Home | Current Version | Previous Version | Text Only | Print | Product List | Glossary On
Versions: 1 2 3 4 5 6 7 8 9 10 11 12 13 14 15 16 17 18
000
FTAK31 PAJN 292300
TAFAPG
TAF
PAPG 292325Z 3000/3024 VRB04KT P6SM -SHRA SCT020 OVC040
      TEMPO 3000/3004 20008G15KT 5SM SHRA BR BKN020
     FM300600 VRB03KT P6SM VCSH BKN035 BKN050
      AMD LTD TO CLD VIS AND WIND 3006/3015=

USA.gov is the U.S. government's official web portal to all federal, state and local government web resources and services.